createdAt,value
2019-05-29T00:00:22.966Z,50.70
2019-05-29T00:02:51.757Z,50.70
2019-05-29T00:05:20.541Z,50.80
2019-05-29T00:07:49.380Z,50.80
2019-05-29T00:10:18.651Z,50.70
2019-05-29T00:12:48.423Z,50.80
2019-05-29T00:15:18.630Z,50.80
2019-05-29T00:17:47.504Z,50.80
2019-05-29T00:20:16.398Z,50.80
2019-05-29T00:22:45.184Z,50.80
2019-05-29T00:25:15.285Z,50.60
2019-05-29T00:27:44.064Z,50.80
2019-05-29T00:30:13.530Z,50.90
2019-05-29T00:32:42.333Z,50.90
2019-05-29T00:35:12.270Z,50.80
2019-05-29T00:37:41.125Z,50.90
2019-05-29T00:40:10.900Z,50.90
2019-05-29T00:42:39.811Z,50.90
2019-05-29T00:45:09.767Z,50.90
2019-05-29T00:47:38.534Z,50.90
2019-05-29T00:50:07.990Z,50.80
2019-05-29T00:52:37.002Z,50.70
2019-05-29T00:55:06.688Z,50.90
2019-05-29T00:57:35.476Z,50.90
2019-05-29T01:00:06.470Z,50.70
2019-05-29T01:02:35.369Z,50.80
2019-05-29T01:05:05.756Z,50.80
2019-05-29T01:07:34.548Z,50.70
2019-05-29T01:10:04.366Z,50.70
2019-05-29T01:12:33.136Z,50.70
2019-05-29T01:15:01.919Z,50.70
2019-05-29T01:17:30.740Z,50.60
2019-05-29T01:19:59.524Z,50.60
2019-05-29T01:22:28.315Z,50.60
2019-05-29T01:24:57.109Z,50.60
2019-05-29T01:27:25.893Z,50.60
2019-05-29T01:29:54.694Z,50.60
2019-05-29T01:32:23.827Z,50.50
2019-05-29T01:34:52.572Z,50.60
2019-05-29T01:37:22.262Z,50.60
2019-05-29T01:39:51.203Z,50.60
2019-05-29T01:42:19.986Z,50.70
2019-05-29T01:44:48.790Z,50.80
2019-05-29T01:47:17.573Z,50.80
2019-05-29T01:49:46.377Z,50.80
2019-05-29T01:52:15.493Z,50.70
2019-05-29T01:54:44.556Z,50.70
2019-05-29T01:57:13.340Z,50.70
2019-05-29T01:59:42.150Z,50.80
2019-05-29T02:02:10.958Z,50.80
2019-05-29T02:04:39.776Z,50.70
2019-05-29T02:07:08.564Z,50.70
2019-05-29T02:09:37.353Z,50.70
2019-05-29T02:12:06.145Z,50.70
2019-05-29T02:14:34.949Z,50.70
2019-05-29T02:17:03.738Z,50.80
2019-05-29T02:19:32.525Z,50.80
2019-05-29T02:22:01.316Z,50.80
2019-05-29T02:24:30.105Z,50.70
2019-05-29T02:26:58.898Z,50.70
2019-05-29T02:29:27.684Z,50.70
2019-05-29T02:31:56.469Z,50.60
2019-05-29T02:34:27.266Z,50.60
2019-05-29T02:36:55.694Z,50.60
2019-05-29T02:39:25.630Z,50.60
2019-05-29T02:41:54.924Z,50.60
2019-05-29T02:44:25.272Z,50.60
2019-05-29T02:46:54.206Z,50.60
2019-05-29T02:49:23.868Z,50.50
2019-05-29T02:51:52.693Z,50.50
2019-05-29T02:54:22.564Z,50.40
2019-05-29T02:56:51.484Z,50.50
2019-05-29T02:59:21.082Z,50.50
2019-05-29T03:01:50.068Z,50.50
2019-05-29T03:04:19.000Z,50.60
2019-05-29T03:06:47.785Z,50.60
2019-05-29T03:09:16.578Z,50.60
2019-05-29T03:11:45.377Z,50.60
2019-05-29T03:14:14.221Z,50.60
2019-05-29T03:16:42.970Z,50.70
2019-05-29T03:19:11.762Z,50.70
2019-05-29T03:21:40.562Z,50.70
2019-05-29T03:24:09.347Z,50.80
2019-05-29T03:26:38.456Z,50.80
2019-05-29T03:29:07.317Z,50.80
2019-05-29T03:31:45.291Z,50.90
2019-05-29T03:34:06.559Z,50.90
2019-05-29T03:36:42.067Z,50.90
2019-05-29T03:39:07.150Z,51.00
2019-05-29T03:41:35.948Z,51.00
2019-05-29T03:44:04.838Z,51.10
2019-05-29T03:46:41.151Z,51.10
2019-05-29T03:49:04.079Z,51.10
2019-05-29T03:51:35.137Z,51.30
2019-05-29T03:54:03.377Z,51.20
2019-05-29T03:56:32.634Z,51.20
2019-05-29T03:59:01.415Z,51.20
2019-05-29T04:01:31.773Z,51.10
2019-05-29T04:04:00.652Z,51.20
2019-05-29T04:06:31.027Z,51.10
2019-05-29T04:09:00.021Z,51.10
2019-05-29T04:11:29.230Z,51.00
2019-05-29T04:13:58.192Z,51.00
2019-05-29T04:16:27.885Z,51.20
2019-05-29T04:18:58.809Z,51.20
2019-05-29T04:21:29.543Z,51.20
2019-05-29T04:24:00.890Z,51.10
2019-05-29T04:26:32.267Z,50.90
2019-05-29T04:29:02.090Z,50.90
2019-05-29T04:31:32.533Z,50.90
2019-05-29T04:34:01.691Z,50.50
2019-05-29T04:36:31.202Z,50.50
2019-05-29T04:39:00.905Z,50.30
2019-05-29T04:41:30.833Z,50.10
2019-05-29T04:43:59.686Z,49.90
2019-05-29T04:46:29.961Z,49.80
2019-05-29T04:48:58.911Z,49.80
2019-05-29T04:51:29.109Z,49.70
2019-05-29T04:53:57.976Z,49.60
2019-05-29T04:56:26.766Z,49.60
2019-05-29T04:58:55.602Z,49.60
2019-05-29T05:01:24.392Z,49.70
2019-05-29T05:03:53.174Z,49.70
2019-05-29T05:06:21.970Z,49.80
2019-05-29T05:08:50.748Z,49.80
2019-05-29T05:11:19.554Z,48.50
2019-05-29T05:13:48.551Z,47.60
2019-05-29T05:16:17.343Z,46.90
2019-05-29T05:18:46.162Z,46.10
2019-05-29T05:21:14.945Z,46.10
2019-05-29T05:23:43.777Z,45.20
2019-05-29T05:26:12.576Z,44.10
2019-05-29T05:28:44.790Z,44.30
2019-05-29T05:31:11.801Z,44.90
2019-05-29T05:33:40.974Z,46.20
2019-05-29T05:36:09.914Z,46.90
2019-05-29T05:38:38.823Z,47.10
2019-05-29T05:41:07.594Z,47.20
2019-05-29T05:43:36.916Z,47.40
2019-05-29T05:46:05.792Z,47.40
2019-05-29T05:48:35.111Z,47.30
2019-05-29T05:51:03.976Z,47.30
2019-05-29T05:53:33.360Z,47.30
2019-05-29T05:56:02.271Z,47.30
2019-05-29T05:58:33.661Z,47.20
2019-05-29T06:01:02.657Z,47.00
2019-05-29T06:03:31.827Z,47.10
2019-05-29T06:06:00.628Z,47.00
2019-05-29T06:08:29.437Z,46.90
2019-05-29T06:10:58.216Z,46.90
2019-05-29T06:13:27.056Z,46.90
2019-05-29T06:15:55.851Z,46.90
2019-05-29T06:18:24.642Z,46.80
2019-05-29T06:20:53.441Z,46.70
2019-05-29T06:23:22.238Z,46.60
2019-05-29T06:25:51.025Z,46.60
2019-05-29T06:28:19.813Z,46.60
2019-05-29T06:30:48.610Z,46.40
2019-05-29T06:33:17.400Z,46.30
2019-05-29T06:35:46.189Z,46.10
2019-05-29T06:38:14.969Z,46.00
2019-05-29T06:40:44.979Z,46.00
2019-05-29T06:43:22.789Z,46.10
2019-05-29T06:45:52.044Z,46.20
2019-05-29T06:48:41.827Z,46.30
2019-05-29T06:50:57.407Z,46.40
2019-05-29T06:53:26.550Z,46.40
2019-05-29T06:55:56.828Z,46.20
2019-05-29T06:58:26.021Z,46.20
2019-05-29T07:00:54.812Z,46.20
2019-05-29T07:03:23.609Z,46.20
2019-05-29T07:05:52.935Z,46.10
2019-05-29T07:08:37.372Z,45.90
2019-05-29T07:10:52.327Z,45.80
2019-05-29T07:13:21.114Z,45.80
2019-05-29T07:15:50.021Z,45.70
2019-05-29T07:18:18.868Z,45.60
2019-05-29T07:20:47.705Z,45.60
2019-05-29T07:23:16.493Z,45.50
2019-05-29T07:25:45.640Z,45.50
2019-05-29T07:28:14.665Z,45.60
2019-05-29T07:30:49.652Z,45.60
2019-05-29T07:33:13.909Z,45.70
2019-05-29T07:35:43.603Z,45.70
2019-05-29T07:38:12.396Z,45.60
2019-05-29T07:40:42.644Z,45.70
2019-05-29T07:43:11.681Z,45.50
2019-05-29T07:45:40.701Z,44.40
2019-05-29T07:48:10.571Z,45.00
2019-05-29T07:50:40.093Z,45.30
2019-05-29T07:53:08.948Z,45.40
2019-05-29T07:55:38.406Z,45.20
2019-05-29T07:58:07.238Z,45.60
2019-05-29T08:00:55.661Z,45.90
2019-05-29T08:03:06.464Z,45.90
2019-05-29T08:05:35.257Z,45.60
2019-05-29T08:08:04.045Z,45.50
2019-05-29T08:10:32.833Z,45.30
2019-05-29T08:13:01.632Z,45.20
2019-05-29T08:15:30.434Z,45.00
2019-05-29T08:17:59.222Z,44.80
2019-05-29T08:20:28.021Z,44.70
2019-05-29T08:22:56.812Z,44.70
2019-05-29T08:25:25.712Z,44.70
2019-05-29T08:27:54.493Z,44.80
2019-05-29T08:30:23.295Z,44.70
2019-05-29T08:32:52.156Z,44.70
2019-05-29T08:35:20.879Z,45.20
2019-05-29T08:37:49.670Z,44.80
2019-05-29T08:40:19.047Z,44.90
2019-05-29T08:42:47.841Z,45.00
2019-05-29T08:45:16.827Z,45.00
2019-05-29T08:47:45.651Z,45.10
2019-05-29T08:50:18.582Z,45.20
2019-05-29T08:52:45.992Z,45.30
2019-05-29T08:55:14.824Z,45.30
2019-05-29T08:57:44.211Z,45.30
2019-05-29T09:00:13.438Z,45.40
2019-05-29T09:02:42.554Z,45.30
2019-05-29T09:05:11.743Z,45.40
2019-05-29T09:07:40.533Z,45.30
2019-05-29T09:10:11.017Z,45.20
2019-05-29T09:12:39.809Z,45.20
2019-05-29T09:15:10.452Z,45.10
2019-05-29T09:17:39.488Z,45.10
2019-05-29T09:20:26.133Z,45.20
2019-05-29T09:22:39.580Z,45.20
2019-05-29T09:25:08.445Z,45.40
2019-05-29T09:27:37.245Z,45.70
2019-05-29T09:30:07.222Z,46.00
2019-05-29T09:32:49.349Z,46.30
2019-05-29T09:35:06.939Z,46.40
2019-05-29T09:37:35.750Z,46.30
2019-05-29T09:40:07.481Z,46.40
2019-05-29T09:42:36.280Z,46.40
2019-05-29T09:45:06.370Z,46.50
2019-05-29T09:47:35.161Z,46.30
2019-05-29T09:50:08.485Z,46.40
2019-05-29T09:52:37.297Z,46.60
2019-05-29T09:55:07.466Z,46.50
2019-05-29T09:57:36.266Z,46.40
2019-05-29T10:00:08.011Z,46.40
2019-05-29T10:02:36.911Z,46.30
2019-05-29T10:05:08.947Z,46.30
2019-05-29T10:07:38.546Z,46.30
2019-05-29T10:10:09.821Z,46.20
2019-05-29T10:12:38.609Z,46.20
2019-05-29T10:15:09.563Z,45.40
2019-05-29T10:17:38.352Z,43.80
2019-05-29T10:20:09.137Z,43.40
2019-05-29T10:22:38.036Z,44.70
2019-05-29T10:25:07.624Z,44.80
2019-05-29T10:27:36.518Z,44.40
2019-05-29T10:30:09.182Z,45.40
2019-05-29T10:32:37.978Z,44.90
2019-05-29T10:35:06.858Z,44.50
2019-05-29T10:37:35.665Z,44.90
2019-05-29T10:40:09.223Z,42.60
2019-05-29T10:42:38.222Z,43.00
2019-05-29T10:45:10.437Z,43.60
2019-05-29T10:47:39.225Z,42.60
2019-05-29T10:50:09.275Z,43.60
2019-05-29T10:52:38.036Z,42.50
2019-05-29T10:55:07.404Z,42.40
2019-05-29T10:57:36.194Z,43.80
2019-05-29T11:00:11.276Z,44.70
2019-05-29T11:02:40.085Z,43.20
2019-05-29T11:05:08.965Z,43.60
2019-05-29T11:07:37.765Z,43.50
2019-05-29T11:10:08.554Z,44.90
2019-05-29T11:12:39.452Z,44.30
2019-05-29T11:15:20.719Z,43.90
2019-05-29T11:17:38.565Z,45.00
2019-05-29T11:20:09.459Z,44.20
2019-05-29T11:22:38.250Z,43.50
2019-05-29T11:25:21.742Z,43.60
2019-05-29T11:27:38.095Z,44.60
2019-05-29T11:30:09.097Z,44.80
2019-05-29T11:32:37.906Z,45.00
2019-05-29T11:35:07.194Z,45.00
2019-05-29T11:37:35.994Z,44.90
2019-05-29T11:40:06.376Z,44.90
2019-05-29T11:42:35.262Z,44.90
2019-05-29T11:45:06.114Z,45.00
2019-05-29T11:47:34.929Z,45.00
2019-05-29T11:50:18.406Z,45.00
2019-05-29T11:52:42.936Z,45.00
2019-05-29T11:55:10.735Z,44.80
2019-05-29T11:57:39.831Z,44.90
2019-05-29T12:00:19.628Z,44.90
2019-05-29T12:02:41.584Z,44.90
2019-05-29T12:05:10.863Z,44.80
2019-05-29T12:07:39.666Z,44.90
2019-05-29T12:10:09.392Z,45.00
2019-05-29T12:12:38.357Z,45.00
2019-05-29T12:15:13.649Z,45.20
2019-05-29T12:17:38.697Z,45.20
2019-05-29T12:20:26.395Z,45.20
2019-05-29T12:22:39.146Z,45.20
2019-05-29T12:25:08.044Z,45.10
2019-05-29T12:27:36.935Z,45.10
2019-05-29T12:30:07.921Z,45.30
2019-05-29T12:32:36.717Z,45.30
2019-05-29T12:35:08.802Z,45.40
2019-05-29T12:37:37.591Z,45.40
2019-05-29T12:40:07.589Z,45.40
2019-05-29T12:42:36.403Z,45.40
2019-05-29T12:45:07.885Z,45.40
2019-05-29T12:47:36.734Z,45.40
2019-05-29T12:50:12.954Z,45.30
2019-05-29T12:52:42.163Z,45.00
2019-05-29T12:55:11.537Z,45.00
2019-05-29T12:57:40.352Z,45.00
2019-05-29T13:00:13.852Z,45.30
2019-05-29T13:02:42.755Z,45.20
2019-05-29T13:05:19.700Z,45.30
2019-05-29T13:07:43.093Z,45.30
2019-05-29T13:10:29.390Z,45.50
2019-05-29T13:12:44.368Z,45.60
2019-05-29T13:15:14.818Z,45.20
2019-05-29T13:17:43.616Z,45.50
2019-05-29T13:20:21.146Z,45.30
2019-05-29T13:22:43.159Z,45.20
2019-05-29T13:25:13.966Z,45.20
2019-05-29T13:27:42.913Z,45.70
2019-05-29T13:30:13.806Z,45.00
2019-05-29T13:32:42.956Z,45.00
2019-05-29T13:35:12.201Z,45.00
2019-05-29T13:37:40.999Z,45.00
2019-05-29T13:40:10.205Z,45.00
2019-05-29T13:42:39.597Z,45.00
2019-05-29T13:45:17.810Z,45.20
2019-05-29T13:47:39.125Z,45.30
2019-05-29T13:50:12.056Z,45.40
2019-05-29T13:52:38.856Z,45.50
2019-05-29T13:55:08.164Z,45.50
2019-05-29T13:57:39.807Z,46.20
2019-05-29T14:00:30.203Z,45.60
2019-05-29T14:02:40.052Z,45.70
2019-05-29T14:05:09.253Z,45.80
2019-05-29T14:07:38.041Z,46.00
2019-05-29T14:10:08.232Z,46.20
2019-05-29T14:12:38.295Z,46.30
2019-05-29T14:15:12.390Z,46.20
2019-05-29T14:17:41.387Z,46.20
2019-05-29T14:20:10.809Z,46.10
2019-05-29T14:22:39.594Z,46.80
2019-05-29T14:25:11.533Z,46.10
2019-05-29T14:27:40.486Z,46.00
2019-05-29T14:30:10.901Z,45.90
2019-05-29T14:32:40.007Z,45.80
2019-05-29T14:35:11.032Z,46.40
2019-05-29T14:37:39.722Z,45.60
2019-05-29T14:40:09.836Z,45.60
2019-05-29T14:42:38.701Z,45.60
2019-05-29T14:45:10.134Z,45.60
2019-05-29T14:47:39.203Z,45.40
2019-05-29T14:50:10.920Z,45.50
2019-05-29T14:52:39.765Z,45.30
2019-05-29T14:55:09.378Z,45.40
2019-05-29T14:57:38.996Z,45.30
2019-05-29T15:00:20.944Z,45.30
2019-05-29T15:02:40.537Z,45.10
2019-05-29T15:05:09.815Z,45.00
2019-05-29T15:07:38.730Z,44.90
2019-05-29T15:10:21.741Z,44.90
2019-05-29T15:12:39.305Z,44.80
2019-05-29T15:15:11.125Z,44.80
2019-05-29T15:17:39.637Z,44.80
2019-05-29T15:20:12.534Z,44.70
2019-05-29T15:22:41.641Z,44.70
2019-05-29T15:25:18.343Z,44.70
2019-05-29T15:27:41.089Z,44.60
2019-05-29T15:30:11.848Z,44.60
2019-05-29T15:32:41.058Z,44.60
2019-05-29T15:35:12.741Z,44.60
2019-05-29T15:37:40.545Z,44.50
2019-05-29T15:40:10.859Z,44.50
2019-05-29T15:42:39.858Z,44.40
2019-05-29T15:45:10.092Z,44.40
2019-05-29T15:47:38.925Z,44.40
2019-05-29T15:50:11.389Z,44.40
2019-05-29T15:52:40.392Z,44.40
2019-05-29T15:55:27.097Z,44.30
2019-05-29T15:57:40.334Z,44.30
2019-05-29T16:00:11.414Z,44.30
2019-05-29T16:02:40.332Z,44.30
2019-05-29T16:05:10.943Z,44.40
2019-05-29T16:07:40.101Z,44.40
2019-05-29T16:10:13.055Z,44.30
2019-05-29T16:12:40.901Z,44.30
2019-05-29T16:15:11.256Z,44.40
2019-05-29T16:17:40.153Z,44.30
2019-05-29T16:20:10.350Z,44.20
2019-05-29T16:22:39.540Z,44.20
2019-05-29T16:25:08.944Z,44.10
2019-05-29T16:27:37.737Z,44.10
2019-05-29T16:30:11.387Z,44.00
2019-05-29T16:32:40.318Z,44.20
2019-05-29T16:35:10.970Z,44.30
2019-05-29T16:37:39.893Z,44.50
2019-05-29T16:40:14.140Z,44.60
2019-05-29T16:42:43.145Z,44.80
2019-05-29T16:45:14.268Z,45.00
2019-05-29T16:47:43.088Z,45.10
2019-05-29T16:50:13.033Z,45.20
2019-05-29T16:52:41.886Z,45.70
2019-05-29T16:55:11.274Z,45.90
2019-05-29T16:57:40.074Z,46.00
2019-05-29T17:02:23.436Z,51.10
2019-05-29T17:04:52.597Z,47.70
2019-05-29T17:07:22.135Z,47.70
2019-05-29T17:09:50.996Z,50.50
2019-05-29T17:12:20.518Z,49.20
2019-05-29T17:14:49.394Z,47.00
2019-05-29T17:17:18.648Z,47.10
2019-05-29T17:19:47.491Z,46.70
2019-05-29T17:22:16.554Z,46.10
2019-05-29T17:24:45.403Z,48.80
2019-05-29T17:27:14.543Z,47.60
2019-05-29T17:29:43.377Z,48.30
2019-05-29T17:32:12.217Z,47.80
2019-05-29T17:34:41.005Z,47.40
2019-05-29T17:37:09.809Z,48.50
2019-05-29T17:39:38.604Z,49.20
2019-05-29T17:42:07.498Z,49.30
2019-05-29T17:44:36.294Z,49.30
2019-05-29T17:47:05.089Z,49.30
2019-05-29T17:49:34.724Z,49.20
2019-05-29T17:52:03.678Z,49.10
2019-05-29T17:54:32.539Z,49.20
2019-05-29T17:57:01.368Z,49.10
2019-05-29T17:59:30.278Z,49.20
2019-05-29T18:01:59.059Z,49.10
2019-05-29T18:04:27.863Z,49.10
2019-05-29T18:06:56.811Z,49.10
2019-05-29T18:09:27.977Z,49.20
2019-05-29T18:11:56.321Z,49.20
2019-05-29T18:14:25.343Z,49.20
2019-05-29T18:16:54.197Z,49.40
2019-05-29T18:19:23.766Z,49.60
2019-05-29T18:21:52.580Z,50.00
2019-05-29T18:24:21.648Z,50.40
2019-05-29T18:26:50.478Z,51.40
2019-05-29T18:29:20.116Z,51.40
2019-05-29T18:31:48.858Z,50.20
2019-05-29T18:34:18.715Z,49.80
2019-05-29T18:36:47.577Z,49.30
2019-05-29T18:39:16.463Z,49.10
2019-05-29T18:41:45.262Z,49.00
2019-05-29T18:44:14.035Z,48.90
2019-05-29T18:46:42.830Z,48.70
2019-05-29T18:49:14.494Z,48.70
2019-05-29T18:51:42.090Z,48.70
2019-05-29T18:54:10.877Z,48.80
2019-05-29T18:56:39.684Z,48.60
2019-05-29T18:59:08.482Z,48.60
2019-05-29T19:01:37.315Z,48.50
2019-05-29T19:04:06.211Z,48.50
2019-05-29T19:06:35.012Z,48.50
2019-05-29T19:09:05.503Z,48.80
2019-05-29T19:11:34.305Z,48.70
2019-05-29T19:14:03.207Z,48.90
2019-05-29T19:16:32.246Z,49.00
2019-05-29T19:19:00.974Z,49.10
2019-05-29T19:21:30.596Z,49.10
2019-05-29T19:23:59.386Z,49.20
2019-05-29T19:26:28.762Z,49.10
2019-05-29T19:28:57.672Z,49.20
2019-05-29T19:31:27.065Z,49.20
2019-05-29T19:33:55.989Z,49.40
2019-05-29T19:36:25.584Z,49.50
2019-05-29T19:38:54.380Z,49.40
2019-05-29T19:41:23.940Z,49.50
2019-05-29T19:43:52.790Z,49.60
2019-05-29T19:46:21.580Z,49.60
2019-05-29T19:48:50.374Z,49.70
2019-05-29T19:51:19.187Z,49.80
2019-05-29T19:53:47.960Z,50.00
2019-05-29T19:56:16.769Z,49.90
2019-05-29T19:58:45.566Z,50.10
2019-05-29T20:01:28.050Z,50.10
2019-05-29T20:03:44.816Z,50.20
2019-05-29T20:06:13.698Z,50.20
2019-05-29T20:08:42.460Z,50.30
2019-05-29T20:11:11.281Z,50.40
2019-05-29T20:13:40.064Z,50.30
2019-05-29T20:16:09.017Z,50.50
2019-05-29T20:18:38.473Z,50.50
2019-05-29T20:21:07.516Z,50.60
2019-05-29T20:23:36.797Z,50.60
2019-05-29T20:26:05.601Z,50.50
2019-05-29T20:28:34.402Z,50.70
2019-05-29T20:31:03.189Z,50.70
2019-05-29T20:33:32.482Z,50.70
2019-05-29T20:36:01.274Z,50.60
2019-05-29T20:38:30.955Z,50.60
2019-05-29T20:40:59.870Z,50.80
2019-05-29T20:43:28.663Z,50.70
2019-05-29T20:45:57.456Z,50.70
2019-05-29T20:48:26.311Z,50.80
2019-05-29T20:50:55.109Z,50.70
2019-05-29T20:53:23.905Z,50.80
2019-05-29T20:55:52.697Z,50.90
2019-05-29T20:58:24.441Z,50.90
2019-05-29T21:00:51.940Z,50.90
2019-05-29T21:03:20.754Z,51.00
2019-05-29T21:05:49.613Z,51.00
2019-05-29T21:08:18.512Z,51.10
2019-05-29T21:10:47.315Z,50.90
2019-05-29T21:13:16.116Z,51.10
2019-05-29T21:15:44.937Z,51.10
2019-05-29T21:18:13.750Z,51.10
2019-05-29T21:20:42.729Z,51.00
2019-05-29T21:23:11.545Z,51.10
2019-05-29T21:25:40.746Z,51.00
2019-05-29T21:28:09.645Z,51.10
2019-05-29T21:30:39.490Z,51.00
2019-05-29T21:33:08.397Z,51.10
2019-05-29T21:35:37.985Z,51.10
2019-05-29T21:38:06.945Z,51.10
2019-05-29T21:40:36.288Z,51.30
2019-05-29T21:43:05.132Z,51.30
2019-05-29T21:45:34.082Z,51.30
2019-05-29T21:48:02.877Z,51.40
2019-05-29T21:50:31.684Z,51.40
2019-05-29T21:53:00.489Z,51.70
2019-05-29T21:55:29.289Z,51.70
2019-05-29T21:57:58.089Z,51.80
2019-05-29T22:00:35.713Z,51.70
2019-05-29T22:03:05.408Z,52.10
2019-05-29T22:05:34.214Z,52.10
2019-05-29T22:08:03.002Z,51.60
2019-05-29T22:10:31.805Z,52.30
2019-05-29T22:13:00.901Z,52.10
2019-05-29T22:15:29.800Z,52.10
2019-05-29T22:17:59.219Z,52.10
2019-05-29T22:20:28.081Z,52.10
2019-05-29T22:22:57.223Z,52.20
2019-05-29T22:25:26.065Z,52.10
2019-05-29T22:27:55.599Z,52.10
2019-05-29T22:30:24.560Z,52.20
2019-05-29T22:32:53.367Z,52.30
2019-05-29T22:35:22.245Z,52.20
2019-05-29T22:37:51.561Z,52.30
2019-05-29T22:40:20.542Z,52.30
2019-05-29T22:42:49.505Z,52.20
2019-05-29T22:45:18.385Z,52.30
2019-05-29T22:47:47.222Z,52.10
2019-05-29T22:50:16.313Z,52.10
2019-05-29T22:52:45.096Z,52.30
2019-05-29T22:55:13.908Z,52.30
2019-05-29T22:57:42.696Z,52.30
2019-05-29T23:00:12.803Z,52.30
2019-05-29T23:02:41.584Z,52.30
2019-05-29T23:05:10.617Z,52.30
2019-05-29T23:07:39.401Z,52.90
2019-05-29T23:10:08.883Z,52.40
2019-05-29T23:12:37.696Z,52.50
2019-05-29T23:15:07.573Z,52.70
2019-05-29T23:17:36.355Z,52.60
2019-05-29T23:20:08.284Z,52.70
2019-05-29T23:22:37.065Z,52.70
2019-05-29T23:25:06.269Z,52.80
2019-05-29T23:27:35.873Z,52.80
2019-05-29T23:30:07.601Z,51.90
2019-05-29T23:32:36.392Z,51.50
2019-05-29T23:35:07.452Z,50.90
2019-05-29T23:37:36.246Z,50.60
2019-05-29T23:40:10.958Z,50.30
2019-05-29T23:42:39.749Z,49.60
2019-05-29T23:45:08.841Z,49.60
2019-05-29T23:47:37.636Z,49.50
2019-05-29T23:50:07.050Z,49.40
2019-05-29T23:52:35.829Z,49.40
2019-05-29T23:55:06.428Z,49.10
2019-05-29T23:57:35.214Z,48.90
